Alpine Link — V7SZ7 — position and weather

sailwx.info

Track history (hours):
 
Tides and Currents Weather Stations Pressure Air Temp Water Temp Dewpoint Dewpoint Depression Visibility Wind Speed Wind Dir Waves Ship Positions

Alpine Link

Last reported at 2015-May-03 23:33 UTC. Time now 2015-May-05 12:16 UTC.
Position N 36°05' W 010°60'.

Length 183 m; draft 12 m.

Type: Tanker. MMSI: 538003758.

Date/timePositionNaut miles runAvg speedWind from/ knotsBaromVisibWave heightAir tempDewpointWater temp
2015-May-03 23:33N 36°05' W 010°60'2612.4
2015-May-03 21:29N 36°01' W 010°28'1412.4
2015-May-03 20:22N 35°59' W 010°11'1112.6
2015-May-03 19:29N 35°58' W 009°58'1212.8
2015-May-03 18:33N 35°58' W 009°43'1312.8
2015-May-03 17:33N 35°57' W 009°27'1312.9
2015-May-03 16:33N 35°58' W 009°11'1612.8
2015-May-03 15:18N 35°57' W 008°51'1012.9
2015-May-03 14:33N 35°58' W 008°40'1312.8
2015-May-03 13:33N 35°57' W 008°24'1312.8
2015-May-03 12:33N 35°57' W 008°08'1312.9
2015-May-03 11:33N 35°57' W 007°52'1312.8
2015-May-03 10:33N 35°58' W 007°36'1312.6
2015-May-03 09:33N 35°57' W 007°20'1312.8
2015-May-03 08:33N 35°57' W 007°05'1313.0
2015-May-03 07:33N 35°58' W 006°49'1312.9
2015-May-03 06:33N 35°58' W 006°33'4611.4
2015-May-03 02:32N 35°58' W 005°36'10 9.9
2015-May-03 01:33N 36°00' W 005°25'7 5.3
2015-May-03 00:20N 36°06' W 005°21'0 0.0
2015-May-02 23:33N 36°06' W 005°21'0 0.0
2015-May-02 22:33N 36°06' W 005°21'0 0.1
2015-May-02 21:33N 36°06' W 005°22'0 0.1
2015-May-02 20:33N 36°06' W 005°22'0 0.1
2015-May-02 19:33N 36°06' W 005°22'0 0.0
2015-May-02 18:33N 36°06' W 005°22'1 1.2
2015-May-02 17:33N 36°05' W 005°21'10 9.9
2015-May-02 16:33N 36°07' W 005°09'2 1.7
2015-May-02 15:31N 36°08' W 005°07'1 0.8
2015-May-02 14:30N 36°08' W 005°08'1 0.9
2015-May-02 13:33N 36°08' W 005°09'1 1.0
2015-May-02 12:33N 36°09' W 005°10'2 1.8
2015-May-02 11:34N 36°08' W 005°12'4 3.6
2015-May-02 10:32N 36°06' W 005°09'10411.6
2015-May-02 01:33N 36°12' W 002°60'1413.6
2015-May-02 00:33N 36°12' W 002°43'1313.5
2015-May-01 23:34N 36°13' W 002°26'1313.2
2015-May-01 22:33N 36°14' W 002°10'1313.0
2015-May-01 21:33N 36°16' W 001°54'1313.0
2015-May-01 20:34N 36°20' W 001°38'1312.4
2015-May-01 19:33N 36°22' W 001°23'1312.8
2015-May-01 18:33N 36°25' W 001°08'1312.7
2015-May-01 17:33N 36°27' W 000°52'1312.8
2015-May-01 16:33N 36°30' W 000°37'1312.8
2015-May-01 15:33N 36°33' W 000°21'1312.9
2015-May-01 14:33N 36°36' W 000°06'1312.9
2015-May-01 13:33N 36°39' E 000°10'1312.7
2015-May-01 12:33N 36°41' E 000°26'1212.4
2015-May-01 11:33N 36°44' E 000°41'1212.3
2015-May-01 10:33N 36°47' E 000°56'1212.1
2015-May-01 09:33N 36°50' E 001°10'1211.6
2015-May-01 08:33N 36°52' E 001°24'1211.7
2015-May-01 07:33N 36°55' E 001°39'1312.8
2015-May-01 06:33N 36°57' E 001°55'1212.3
2015-May-01 05:33N 36°60' E 002°10'1212.2
2015-May-01 04:33N 37°03' E 002°25'1212.3
2015-May-01 03:33N 37°05' E 002°39'1211.6
2015-May-01 02:33N 37°08' E 002°54'1211.8
2015-May-01 01:33N 37°11' E 003°08'1211.9
2015-May-01 00:33N 37°14' E 003°23'1212.2
2015-Apr-30 23:33N 37°16' E 003°38'1212.4
2015-Apr-30 22:33N 37°19' E 003°53'2712.7
2015-Apr-30 20:24N 37°22' E 004°27'1513.0
2015-Apr-30 19:17N 37°23' E 004°45'1013.1
2015-Apr-30 18:31N 37°24' E 004°58'1612.5
2015-Apr-30 17:13N 37°27' E 005°18'812.6
2015-Apr-30 16:33N 37°27' E 005°28'1712.3
2015-Apr-30 15:11N 37°29' E 005°49'19212.3
2015-Apr-29 23:33N 37°40' E 009°51'1511.8
2015-Apr-29 22:19N 37°39' E 010°10'1111.7
2015-Apr-29 21:20N 37°37' E 010°24'1211.6
2015-Apr-29 20:19N 37°34' E 010°38'1011.6
2015-Apr-29 19:30N 37°32' E 010°50'1212.2
2015-Apr-29 18:33N 37°29' E 011°04'1512.1
2015-Apr-29 17:19N 37°22' E 011°21'12412.5
2015-Apr-29 07:21N 36°38' E 013°46'1012.0
2015-Apr-29 06:33N 36°36' E 013°58'1212.0
2015-Apr-29 05:33N 36°32' E 014°12'1212.0
2015-Apr-29 04:33N 36°30' E 014°27'1211.9
2015-Apr-29 03:31N 36°28' E 014°42'42012.0
2015-Apr-27 16:33N 36°28' E 023°24'1212.4
2015-Apr-27 15:33N 36°34' E 023°38'1212.4
2015-Apr-27 14:33N 36°40' E 023°51'5212.1
2015-Apr-27 10:16N 37°27' E 024°20'16012.2
2015-Apr-26 21:07N 39°52' E 025°47'1911.9
2015-Apr-26 19:29N 40°01' E 026°09'  
Track history (hours):
 
Tides and Currents Weather Stations Pressure Air Temp Water Temp Dewpoint Dewpoint Depression Visibility Wind Speed Wind Dir Waves Ship Positions

Alpine Link

Last reported at 2015-May-03 23:33 UTC. Time now 2015-May-05 12:16 UTC.
Position N 36°05' W 010°60'.

Length 183 m; draft 12 m.

Type: Tanker. MMSI: 538003758.

Date/timePositionNaut miles runAvg speedWind from/ knotsBaromVisibWave heightAir tempDewpointWater temp
2015-May-03 23:33N 36°05' W 010°60'2612.4
2015-May-03 21:29N 36°01' W 010°28'1412.4
2015-May-03 20:22N 35°59' W 010°11'1112.6
2015-May-03 19:29N 35°58' W 009°58'1212.8
2015-May-03 18:33N 35°58' W 009°43'1312.8
2015-May-03 17:33N 35°57' W 009°27'1312.9
2015-May-03 16:33N 35°58' W 009°11'1612.8
2015-May-03 15:18N 35°57' W 008°51'1012.9
2015-May-03 14:33N 35°58' W 008°40'1312.8
2015-May-03 13:33N 35°57' W 008°24'1312.8
2015-May-03 12:33N 35°57' W 008°08'1312.9
2015-May-03 11:33N 35°57' W 007°52'1312.8
2015-May-03 10:33N 35°58' W 007°36'1312.6
2015-May-03 09:33N 35°57' W 007°20'1312.8
2015-May-03 08:33N 35°57' W 007°05'1313.0
2015-May-03 07:33N 35°58' W 006°49'1312.9
2015-May-03 06:33N 35°58' W 006°33'4611.4
2015-May-03 02:32N 35°58' W 005°36'10 9.9
2015-May-03 01:33N 36°00' W 005°25'7 5.3
2015-May-03 00:20N 36°06' W 005°21'0 0.0
2015-May-02 23:33N 36°06' W 005°21'0 0.0
2015-May-02 22:33N 36°06' W 005°21'0 0.1
2015-May-02 21:33N 36°06' W 005°22'0 0.1
2015-May-02 20:33N 36°06' W 005°22'0 0.1
2015-May-02 19:33N 36°06' W 005°22'0 0.0
2015-May-02 18:33N 36°06' W 005°22'1 1.2
2015-May-02 17:33N 36°05' W 005°21'10 9.9
2015-May-02 16:33N 36°07' W 005°09'2 1.7
2015-May-02 15:31N 36°08' W 005°07'1 0.8
2015-May-02 14:30N 36°08' W 005°08'1 0.9
2015-May-02 13:33N 36°08' W 005°09'1 1.0
2015-May-02 12:33N 36°09' W 005°10'2 1.8
2015-May-02 11:34N 36°08' W 005°12'4 3.6
2015-May-02 10:32N 36°06' W 005°09'10411.6
2015-May-02 01:33N 36°12' W 002°60'1413.6
2015-May-02 00:33N 36°12' W 002°43'1313.5
2015-May-01 23:34N 36°13' W 002°26'1313.2
2015-May-01 22:33N 36°14' W 002°10'1313.0
2015-May-01 21:33N 36°16' W 001°54'1313.0
2015-May-01 20:34N 36°20' W 001°38'1312.4
2015-May-01 19:33N 36°22' W 001°23'1312.8
2015-May-01 18:33N 36°25' W 001°08'1312.7
2015-May-01 17:33N 36°27' W 000°52'1312.8
2015-May-01 16:33N 36°30' W 000°37'1312.8
2015-May-01 15:33N 36°33' W 000°21'1312.9
2015-May-01 14:33N 36°36' W 000°06'1312.9
2015-May-01 13:33N 36°39' E 000°10'1312.7
2015-May-01 12:33N 36°41' E 000°26'1212.4
2015-May-01 11:33N 36°44' E 000°41'1212.3
2015-May-01 10:33N 36°47' E 000°56'1212.1
2015-May-01 09:33N 36°50' E 001°10'1211.6
2015-May-01 08:33N 36°52' E 001°24'1211.7
2015-May-01 07:33N 36°55' E 001°39'1312.8
2015-May-01 06:33N 36°57' E 001°55'1212.3
2015-May-01 05:33N 36°60' E 002°10'1212.2
2015-May-01 04:33N 37°03' E 002°25'1212.3
2015-May-01 03:33N 37°05' E 002°39'1211.6
2015-May-01 02:33N 37°08' E 002°54'1211.8
2015-May-01 01:33N 37°11' E 003°08'1211.9
2015-May-01 00:33N 37°14' E 003°23'1212.2
2015-Apr-30 23:33N 37°16' E 003°38'1212.4
2015-Apr-30 22:33N 37°19' E 003°53'2712.7
2015-Apr-30 20:24N 37°22' E 004°27'1513.0
2015-Apr-30 19:17N 37°23' E 004°45'1013.1
2015-Apr-30 18:31N 37°24' E 004°58'1612.5
2015-Apr-30 17:13N 37°27' E 005°18'812.6
2015-Apr-30 16:33N 37°27' E 005°28'1712.3
2015-Apr-30 15:11N 37°29' E 005°49'19212.3
2015-Apr-29 23:33N 37°40' E 009°51'1511.8
2015-Apr-29 22:19N 37°39' E 010°10'1111.7
2015-Apr-29 21:20N 37°37' E 010°24'1211.6
2015-Apr-29 20:19N 37°34' E 010°38'1011.6
2015-Apr-29 19:30N 37°32' E 010°50'1212.2
2015-Apr-29 18:33N 37°29' E 011°04'1512.1
2015-Apr-29 17:19N 37°22' E 011°21'12412.5
2015-Apr-29 07:21N 36°38' E 013°46'1012.0
2015-Apr-29 06:33N 36°36' E 013°58'1212.0
2015-Apr-29 05:33N 36°32' E 014°12'1212.0
2015-Apr-29 04:33N 36°30' E 014°27'1211.9
2015-Apr-29 03:31N 36°28' E 014°42'42012.0
2015-Apr-27 16:33N 36°28' E 023°24'1212.4
2015-Apr-27 15:33N 36°34' E 023°38'1212.4
2015-Apr-27 14:33N 36°40' E 023°51'5212.1
2015-Apr-27 10:16N 37°27' E 024°20'16012.2
2015-Apr-26 21:07N 39°52' E 025°47'1911.9
2015-Apr-26 19:29N 40°01' E 026°09'  

Dump ship's entire track history